Forside
METAR-TAF:

METAR-TAF

Lufthavne :

Cardiff Airport

Cardiff, Wales

Breddekreds: 51-24N, længdekreds: 003-21W, højde: 67 m

Aktuelle vejr

Denne rapport blev lavet for 39 minutter siden, kl. 11:20 UTC
Vind 15 kt fra øst
Temperatur 9°C
Fugtighed 57%
Tryk 1033 hPa
Sigt 10 km eller mere
Spredte skyer i en højde af 3000 ft
Brudte skyer i en højde af 3700 ft

METAR: EGFF 311120Z AUTO 08015KT 9999 SCT030 BKN037 09/01 Q1033

Tid: 12:59 (11:59 UTC)

Vejrudsigter

Denne rapport blev lavet for 58 minutter siden, kl. 11:01 UTC
Foreløbig gælder fra 31 på 12 UTC til 01 på 12 UTC
Vind 14 kt fra nordøst
Sigt 10 km eller mere
Spredte skyer i en højde af 3000 ft
ændring
fra 01 på 05 UTC til 01 på 08 UTC
Vind 5 kt fra varierende retninger

TAF: EGFF 311101Z 3112/0112 05014KT 9999 SCT030 BECMG 0105/0108 VRB05KT

Vejrobservationer og prognoser fra mere end 4000 lufthavne (METAR og TAF).

De gule og røde prikker repræsenterer de meteorologiske stationer.

Flyt musen over at se navnet på stationen.

Så klik over at se vejr observationer og prognoser.

At skifte det kort: Klik på de grønne knapper med et sort kors for at zoome ind; på den grønne knap med en bindestreg for at zoome ud; eller på de grønne pile for tilstødende kort.


METAR-TAF: